sensor_id;sensor_type;location;lat;lon;timestamp;temperature;humidity
41939;DHT22;23057;48.554;14.454;2022-11-15T00:01:01;2.10;99.90
41939;DHT22;23057;48.554;14.454;2022-11-15T00:03:39;2.10;99.90
41939;DHT22;23057;48.554;14.454;2022-11-15T00:06:09;2.00;99.90
41939;DHT22;23057;48.554;14.454;2022-11-15T00:08:40;1.90;99.90
41939;DHT22;23057;48.554;14.454;2022-11-15T00:11:12;1.80;99.90
41939;DHT22;23057;48.554;14.454;2022-11-15T00:13:43;1.80;99.90
41939;DHT22;23057;48.554;14.454;2022-11-15T00:16:14;1.80;99.90
41939;DHT22;23057;48.554;14.454;2022-11-15T00:18:45;1.90;99.90
41939;DHT22;23057;48.554;14.454;2022-11-15T00:21:16;1.80;99.90
41939;DHT22;23057;48.554;14.454;2022-11-15T00:23:48;1.80;99.90
41939;DHT22;23057;48.554;14.454;2022-11-15T00:26:19;1.80;99.90
41939;DHT22;23057;48.554;14.454;2022-11-15T00:28:52;1.90;99.90
41939;DHT22;23057;48.554;14.454;2022-11-15T00:31:23;1.90;99.90
41939;DHT22;23057;48.554;14.454;2022-11-15T00:33:54;1.90;99.90
41939;DHT22;23057;48.554;14.454;2022-11-15T00:36:25;1.80;99.90
41939;DHT22;23057;48.554;14.454;2022-11-15T00:38:55;1.60;99.90
41939;DHT22;23057;48.554;14.454;2022-11-15T00:41:26;1.50;99.90
41939;DHT22;23057;48.554;14.454;2022-11-15T00:43:57;1.50;99.90
41939;DHT22;23057;48.554;14.454;2022-11-15T00:46:28;1.50;99.90
41939;DHT22;23057;48.554;14.454;2022-11-15T00:48:59;1.50;99.90
41939;DHT22;23057;48.554;14.454;2022-11-15T00:51:30;1.50;99.90
41939;DHT22;23057;48.554;14.454;2022-11-15T00:54:01;1.50;99.90
41939;DHT22;23057;48.554;14.454;2022-11-15T00:56:32;1.50;99.90
41939;DHT22;23057;48.554;14.454;2022-11-15T00:59:03;1.50;99.90
41939;DHT22;23057;48.554;14.454;2022-11-15T01:01:33;1.50;99.90
41939;DHT22;23057;48.554;14.454;2022-11-15T01:04:04;1.50;99.90
41939;DHT22;23057;48.554;14.454;2022-11-15T01:06:35;1.50;99.90
41939;DHT22;23057;48.554;14.454;2022-11-15T01:09:06;1.50;99.90
41939;DHT22;23057;48.554;14.454;2022-11-15T01:11:37;1.50;99.90
41939;DHT22;23057;48.554;14.454;2022-11-15T01:14:08;1.60;99.90
41939;DHT22;23057;48.554;14.454;2022-11-15T01:16:38;1.70;99.90
41939;DHT22;23057;48.554;14.454;2022-11-15T01:19:09;1.60;99.90
41939;DHT22;23057;48.554;14.454;2022-11-15T01:21:40;1.60;99.90
41939;DHT22;23057;48.554;14.454;2022-11-15T01:24:12;1.60;99.90
41939;DHT22;23057;48.554;14.454;2022-11-15T01:26:43;1.70;99.90
41939;DHT22;23057;48.554;14.454;2022-11-15T01:29:14;1.70;99.90
41939;DHT22;23057;48.554;14.454;2022-11-15T01:31:45;1.70;99.90
41939;DHT22;23057;48.554;14.454;2022-11-15T01:34:16;1.60;99.90
41939;DHT22;23057;48.554;14.454;2022-11-15T01:36:47;1.50;99.90
41939;DHT22;23057;48.554;14.454;2022-11-15T01:39:18;1.50;99.90
41939;DHT22;23057;48.554;14.454;2022-11-15T01:41:49;1.40;99.90
41939;DHT22;23057;48.554;14.454;2022-11-15T01:44:50;1.30;99.90
41939;DHT22;23057;48.554;14.454;2022-11-15T01:47:39;1.40;99.90
41939;DHT22;23057;48.554;14.454;2022-11-15T01:50:20;1.40;99.90
41939;DHT22;23057;48.554;14.454;2022-11-15T01:52:58;1.30;99.90
41939;DHT22;23057;48.554;14.454;2022-11-15T01:55:29;1.20;99.90
41939;DHT22;23057;48.554;14.454;2022-11-15T01:58:02;1.30;99.90
41939;DHT22;23057;48.554;14.454;2022-11-15T02:00:37;1.20;99.90
41939;DHT22;23057;48.554;14.454;2022-11-15T02:03:08;1.30;99.90
41939;DHT22;23057;48.554;14.454;2022-11-15T02:05:39;1.30;99.90
41939;DHT22;23057;48.554;14.454;2022-11-15T02:08:12;1.30;99.90
41939;DHT22;23057;48.554;14.454;2022-11-15T02:10:50;1.30;99.90
41939;DHT22;23057;48.554;14.454;2022-11-15T02:13:21;1.30;99.90
41939;DHT22;23057;48.554;14.454;2022-11-15T02:16:02;1.40;99.90
41939;DHT22;23057;48.554;14.454;2022-11-15T02:22:31;1.40;99.90
41939;DHT22;23057;48.554;14.454;2022-11-15T02:37:56;1.50;99.90
41939;DHT22;23057;48.554;14.454;2022-11-15T02:41:04;1.30;99.90
41939;DHT22;23057;48.554;14.454;2022-11-15T02:43:54;1.10;99.90
41939;DHT22;23057;48.554;14.454;2022-11-15T02:49:51;1.00;99.90
41939;DHT22;23057;48.554;14.454;2022-11-15T02:52:27;1.00;99.90
41939;DHT22;23057;48.554;14.454;2022-11-15T02:55:01;1.00;99.90
41939;DHT22;23057;48.554;14.454;2022-11-15T02:57:51;1.00;99.90
41939;DHT22;23057;48.554;14.454;2022-11-15T03:00:59;0.90;99.90
41939;DHT22;23057;48.554;14.454;2022-11-15T03:04:32;0.90;99.90
41939;DHT22;23057;48.554;14.454;2022-11-15T03:07:26;0.80;99.90
41939;DHT22;23057;48.554;14.454;2022-11-15T03:10:12;0.80;99.90
41939;DHT22;23057;48.554;14.454;2022-11-15T03:19:17;0.80;99.90
41939;DHT22;23057;48.554;14.454;2022-11-15T03:22:18;0.80;99.90
41939;DHT22;23057;48.554;14.454;2022-11-15T03:25:01;0.80;99.90
41939;DHT22;23057;48.554;14.454;2022-11-15T03:27:41;0.80;99.90
41939;DHT22;23057;48.554;14.454;2022-11-15T03:30:19;0.80;99.90
41939;DHT22;23057;48.554;14.454;2022-11-15T03:32:54;0.70;99.90
41939;DHT22;23057;48.554;14.454;2022-11-15T03:35:33;0.70;99.90
41939;DHT22;23057;48.554;14.454;2022-11-15T03:38:30;0.80;99.90
41939;DHT22;23057;48.554;14.454;2022-11-15T03:41:08;0.90;99.90
41939;DHT22;23057;48.554;14.454;2022-11-15T03:44:07;0.90;99.90
41939;DHT22;23057;48.554;14.454;2022-11-15T03:47:28;0.90;99.90
41939;DHT22;23057;48.554;14.454;2022-11-15T03:50:17;1.00;99.90
41939;DHT22;23057;48.554;14.454;2022-11-15T03:52:51;1.00;99.90
41939;DHT22;23057;48.554;14.454;2022-11-15T03:55:25;0.90;99.90
41939;DHT22;23057;48.554;14.454;2022-11-15T03:57:57;0.80;99.90
41939;DHT22;23057;48.554;14.454;2022-11-15T04:00:30;0.80;99.90
41939;DHT22;23057;48.554;14.454;2022-11-15T04:03:01;0.70;99.90
41939;DHT22;23057;48.554;14.454;2022-11-15T04:05:32;0.60;99.90
41939;DHT22;23057;48.554;14.454;2022-11-15T04:08:03;0.60;99.90
41939;DHT22;23057;48.554;14.454;2022-11-15T04:10:34;0.50;99.90
41939;DHT22;23057;48.554;14.454;2022-11-15T04:13:05;0.60;99.90
41939;DHT22;23057;48.554;14.454;2022-11-15T04:15:36;0.70;99.90
41939;DHT22;23057;48.554;14.454;2022-11-15T04:18:07;0.60;99.90
41939;DHT22;23057;48.554;14.454;2022-11-15T04:20:38;0.60;99.90
41939;DHT22;23057;48.554;14.454;2022-11-15T04:23:27;0.60;99.90
41939;DHT22;23057;48.554;14.454;2022-11-15T04:26:21;0.60;99.90
41939;DHT22;23057;48.554;14.454;2022-11-15T04:28:54;0.60;99.90
41939;DHT22;23057;48.554;14.454;2022-11-15T04:31:43;0.50;99.90
41939;DHT22;23057;48.554;14.454;2022-11-15T04:34:14;0.60;99.90
41939;DHT22;23057;48.554;14.454;2022-11-15T04:36:44;0.50;99.90
41939;DHT22;23057;48.554;14.454;2022-11-15T04:39:34;0.50;99.90
41939;DHT22;23057;48.554;14.454;2022-11-15T04:42:05;0.50;99.90
41939;DHT22;23057;48.554;14.454;2022-11-15T04:44:37;0.60;99.90
41939;DHT22;23057;48.554;14.454;2022-11-15T04:47:08;0.60;99.90
41939;DHT22;23057;48.554;14.454;2022-11-15T04:49:39;0.60;99.90
41939;DHT22;23057;48.554;14.454;2022-11-15T04:52:10;0.50;99.90
41939;DHT22;23057;48.554;14.454;2022-11-15T04:54:40;0.50;99.90
41939;DHT22;23057;48.554;14.454;2022-11-15T04:57:13;0.50;99.90
41939;DHT22;23057;48.554;14.454;2022-11-15T04:59:45;0.50;99.90
41939;DHT22;23057;48.554;14.454;2022-11-15T05:02:16;0.40;99.90
41939;DHT22;23057;48.554;14.454;2022-11-15T05:04:47;0.30;99.90
41939;DHT22;23057;48.554;14.454;2022-11-15T05:07:17;0.20;99.90
41939;DHT22;23057;48.554;14.454;2022-11-15T05:09:48;0.10;99.90
41939;DHT22;23057;48.554;14.454;2022-11-15T05:12:19;0.10;99.90
41939;DHT22;23057;48.554;14.454;2022-11-15T05:14:50;0.10;99.90
41939;DHT22;23057;48.554;14.454;2022-11-15T05:17:21;0.10;99.90
41939;DHT22;23057;48.554;14.454;2022-11-15T05:19:51;0.20;99.90
41939;DHT22;23057;48.554;14.454;2022-11-15T05:22:22;0.20;99.90
41939;DHT22;23057;48.554;14.454;2022-11-15T05:24:53;0.20;99.90
41939;DHT22;23057;48.554;14.454;2022-11-15T05:27:24;0.20;99.90
41939;DHT22;23057;48.554;14.454;2022-11-15T05:29:55;0.20;99.90
41939;DHT22;23057;48.554;14.454;2022-11-15T05:32:26;0.30;99.90
41939;DHT22;23057;48.554;14.454;2022-11-15T05:34:59;0.30;99.90
41939;DHT22;23057;48.554;14.454;2022-11-15T05:37:30;0.10;99.90
41939;DHT22;23057;48.554;14.454;2022-11-15T05:40:01;0.10;99.90
41939;DHT22;23057;48.554;14.454;2022-11-15T05:42:31;0.10;99.90
41939;DHT22;23057;48.554;14.454;2022-11-15T05:45:04;0.10;99.90
41939;DHT22;23057;48.554;14.454;2022-11-15T05:47:39;0.20;99.90
41939;DHT22;23057;48.554;14.454;2022-11-15T05:50:12;0.20;99.90
41939;DHT22;23057;48.554;14.454;2022-11-15T05:52:48;0.20;99.90
41939;DHT22;23057;48.554;14.454;2022-11-15T05:55:20;0.20;99.90
41939;DHT22;23057;48.554;14.454;2022-11-15T05:57:51;0.20;99.90
41939;DHT22;23057;48.554;14.454;2022-11-15T06:00:22;0.30;99.90
41939;DHT22;23057;48.554;14.454;2022-11-15T06:02:53;0.30;99.90
41939;DHT22;23057;48.554;14.454;2022-11-15T06:05:24;0.20;99.90
41939;DHT22;23057;48.554;14.454;2022-11-15T06:07:59;0.30;99.90
41939;DHT22;23057;48.554;14.454;2022-11-15T06:10:30;0.30;99.90
41939;DHT22;23057;48.554;14.454;2022-11-15T06:13:03;0.30;99.90
41939;DHT22;23057;48.554;14.454;2022-11-15T06:15:35;0.30;99.90
41939;DHT22;23057;48.554;14.454;2022-11-15T06:18:06;0.20;99.90
41939;DHT22;23057;48.554;14.454;2022-11-15T06:20:37;0.00;99.90
41939;DHT22;23057;48.554;14.454;2022-11-15T06:23:07;0.00;99.90
41939;DHT22;23057;48.554;14.454;2022-11-15T06:25:38;0.00;99.90
41939;DHT22;23057;48.554;14.454;2022-11-15T06:28:09;0.10;99.90
41939;DHT22;23057;48.554;14.454;2022-11-15T06:30:40;0.20;99.90
41939;DHT22;23057;48.554;14.454;2022-11-15T06:33:11;0.20;99.90
41939;DHT22;23057;48.554;14.454;2022-11-15T06:35:42;0.30;99.90
41939;DHT22;23057;48.554;14.454;2022-11-15T06:38:12;0.60;99.90
41939;DHT22;23057;48.554;14.454;2022-11-15T06:40:43;1.80;99.90
41939;DHT22;23057;48.554;14.454;2022-11-15T06:43:14;3.00;99.90
41939;DHT22;23057;48.554;14.454;2022-11-15T06:45:45;3.80;99.90
41939;DHT22;23057;48.554;14.454;2022-11-15T06:48:16;3.50;99.90
41939;DHT22;23057;48.554;14.454;2022-11-15T06:50:54;2.90;99.90
41939;DHT22;23057;48.554;14.454;2022-11-15T06:53:29;2.60;99.90
41939;DHT22;23057;48.554;14.454;2022-11-15T06:56:04;3.00;99.90
41939;DHT22;23057;48.554;14.454;2022-11-15T06:58:37;3.20;99.90
41939;DHT22;23057;48.554;14.454;2022-11-15T07:01:10;3.70;99.90
41939;DHT22;23057;48.554;14.454;2022-11-15T07:03:42;3.60;99.90
41939;DHT22;23057;48.554;14.454;2022-11-15T07:06:13;3.70;99.90
41939;DHT22;23057;48.554;14.454;2022-11-15T07:08:44;3.90;99.90
41939;DHT22;23057;48.554;14.454;2022-11-15T07:11:16;3.90;99.90
41939;DHT22;23057;48.554;14.454;2022-11-15T07:13:46;3.90;99.90
41939;DHT22;23057;48.554;14.454;2022-11-15T07:16:17;3.60;99.90
41939;DHT22;23057;48.554;14.454;2022-11-15T07:18:48;2.60;99.90
41939;DHT22;23057;48.554;14.454;2022-11-15T07:21:19;2.20;99.90
41939;DHT22;23057;48.554;14.454;2022-11-15T07:23:50;2.20;99.90
41939;DHT22;23057;48.554;14.454;2022-11-15T07:26:21;2.50;99.90
41939;DHT22;23057;48.554;14.454;2022-11-15T07:28:52;2.60;99.90
41939;DHT22;23057;48.554;14.454;2022-11-15T07:31:23;2.70;99.90
41939;DHT22;23057;48.554;14.454;2022-11-15T07:33:54;2.90;99.90
41939;DHT22;23057;48.554;14.454;2022-11-15T07:36:25;3.00;99.90
41939;DHT22;23057;48.554;14.454;2022-11-15T07:38:56;3.20;99.90
41939;DHT22;23057;48.554;14.454;2022-11-15T07:41:26;3.00;99.90
41939;DHT22;23057;48.554;14.454;2022-11-15T07:43:57;3.00;99.90
41939;DHT22;23057;48.554;14.454;2022-11-15T07:46:28;3.10;99.90
41939;DHT22;23057;48.554;14.454;2022-11-15T07:48:59;3.30;99.90
41939;DHT22;23057;48.554;14.454;2022-11-15T07:51:30;3.40;99.90
41939;DHT22;23057;48.554;14.454;2022-11-15T07:54:01;3.60;99.90
41939;DHT22;23057;48.554;14.454;2022-11-15T07:56:32;3.70;99.90
41939;DHT22;23057;48.554;14.454;2022-11-15T07:59:02;3.70;99.90
41939;DHT22;23057;48.554;14.454;2022-11-15T08:01:33;3.90;99.90
41939;DHT22;23057;48.554;14.454;2022-11-15T08:04:04;3.90;99.90
41939;DHT22;23057;48.554;14.454;2022-11-15T08:06:35;3.90;99.90
41939;DHT22;23057;48.554;14.454;2022-11-15T08:09:06;4.10;99.90
41939;DHT22;23057;48.554;14.454;2022-11-15T08:11:37;4.70;99.90
41939;DHT22;23057;48.554;14.454;2022-11-15T08:14:07;5.10;99.90
41939;DHT22;23057;48.554;14.454;2022-11-15T08:16:38;5.00;99.90
41939;DHT22;23057;48.554;14.454;2022-11-15T08:19:09;5.00;99.90
41939;DHT22;23057;48.554;14.454;2022-11-15T08:21:40;4.90;99.90
41939;DHT22;23057;48.554;14.454;2022-11-15T08:24:11;4.90;99.90
41939;DHT22;23057;48.554;14.454;2022-11-15T08:26:42;4.70;99.90
41939;DHT22;23057;48.554;14.454;2022-11-15T08:29:13;4.70;99.90
41939;DHT22;23057;48.554;14.454;2022-11-15T08:31:44;4.70;99.90
41939;DHT22;23057;48.554;14.454;2022-11-15T08:34:15;5.00;99.90
41939;DHT22;23057;48.554;14.454;2022-11-15T08:36:46;5.20;99.90
41939;DHT22;23057;48.554;14.454;2022-11-15T08:39:17;5.20;99.90
41939;DHT22;23057;48.554;14.454;2022-11-15T08:41:48;5.30;99.90
41939;DHT22;23057;48.554;14.454;2022-11-15T08:44:19;5.30;99.90
41939;DHT22;23057;48.554;14.454;2022-11-15T08:46:50;5.60;99.90
41939;DHT22;23057;48.554;14.454;2022-11-15T08:49:21;5.90;99.90
41939;DHT22;23057;48.554;14.454;2022-11-15T08:51:52;6.00;99.90
41939;DHT22;23057;48.554;14.454;2022-11-15T08:54:22;6.30;99.90
41939;DHT22;23057;48.554;14.454;2022-11-15T08:56:53;6.50;99.90
41939;DHT22;23057;48.554;14.454;2022-11-15T08:59:24;6.60;99.90
41939;DHT22;23057;48.554;14.454;2022-11-15T09:01:56;6.60;99.90
41939;DHT22;23057;48.554;14.454;2022-11-15T09:04:27;6.50;99.90
41939;DHT22;23057;48.554;14.454;2022-11-15T09:06:58;6.60;99.90
41939;DHT22;23057;48.554;14.454;2022-11-15T09:09:28;6.70;99.90
41939;DHT22;23057;48.554;14.454;2022-11-15T09:11:59;6.80;99.90
41939;DHT22;23057;48.554;14.454;2022-11-15T09:14:30;7.00;99.90
41939;DHT22;23057;48.554;14.454;2022-11-15T09:17:01;7.30;99.90
41939;DHT22;23057;48.554;14.454;2022-11-15T09:19:33;7.60;99.90
41939;DHT22;23057;48.554;14.454;2022-11-15T09:22:08;7.60;99.90
41939;DHT22;23057;48.554;14.454;2022-11-15T09:24:39;7.60;99.90
41939;DHT22;23057;48.554;14.454;2022-11-15T09:27:09;7.60;99.90
41939;DHT22;23057;48.554;14.454;2022-11-15T09:29:40;7.80;99.90
41939;DHT22;23057;48.554;14.454;2022-11-15T09:32:11;7.90;99.90
41939;DHT22;23057;48.554;14.454;2022-11-15T09:34:42;8.10;99.90
41939;DHT22;23057;48.554;14.454;2022-11-15T09:37:13;8.20;99.90
41939;DHT22;23057;48.554;14.454;2022-11-15T09:39:44;8.30;99.90
41939;DHT22;23057;48.554;14.454;2022-11-15T09:45:23;8.70;99.90
41939;DHT22;23057;48.554;14.454;2022-11-15T09:51:23;9.00;99.90
41939;DHT22;23057;48.554;14.454;2022-11-15T09:57:12;9.50;99.90
41939;DHT22;23057;48.554;14.454;2022-11-15T10:00:31;9.70;99.90
41939;DHT22;23057;48.554;14.454;2022-11-15T10:03:27;10.00;99.90
41939;DHT22;23057;48.554;14.454;2022-11-15T10:06:08;10.20;99.90
41939;DHT22;23057;48.554;14.454;2022-11-15T10:09:01;10.30;96.30
41939;DHT22;23057;48.554;14.454;2022-11-15T10:11:37;10.30;1.00
41939;DHT22;23057;48.554;14.454;2022-11-15T10:14:22;10.40;99.90
41939;DHT22;23057;48.554;14.454;2022-11-15T10:17:13;10.50;99.90
41939;DHT22;23057;48.554;14.454;2022-11-15T10:20:21;10.70;99.90
41939;DHT22;23057;48.554;14.454;2022-11-15T10:23:02;11.00;1.00
41939;DHT22;23057;48.554;14.454;2022-11-15T10:25:41;11.10;99.90
41939;DHT22;23057;48.554;14.454;2022-11-15T10:28:29;11.00;99.90
41939;DHT22;23057;48.554;14.454;2022-11-15T10:31:01;11.00;99.90
41939;DHT22;23057;48.554;14.454;2022-11-15T10:33:38;11.00;99.90
41939;DHT22;23057;48.554;14.454;2022-11-15T10:41:31;11.10;99.90
41939;DHT22;23057;48.554;14.454;2022-11-15T10:46:40;11.40;99.90
41939;DHT22;23057;48.554;14.454;2022-11-15T10:49:20;11.50;99.90
41939;DHT22;23057;48.554;14.454;2022-11-15T10:54:50;11.90;11.50
41939;DHT22;23057;48.554;14.454;2022-11-15T10:57:36;11.90;1.00
41939;DHT22;23057;48.554;14.454;2022-11-15T11:03:57;11.90;1.00
41939;DHT22;23057;48.554;14.454;2022-11-15T11:06:10;12.10;1.00
41939;DHT22;23057;48.554;14.454;2022-11-15T11:17:56;12.50;99.90
41939;DHT22;23057;48.554;14.454;2022-11-15T11:20:45;12.80;99.90
41939;DHT22;23057;48.554;14.454;2022-11-15T11:26:32;13.00;99.90
41939;DHT22;23057;48.554;14.454;2022-11-15T11:32:30;13.10;99.90
41939;DHT22;23057;48.554;14.454;2022-11-15T11:48:09;13.30;99.90
41939;DHT22;23057;48.554;14.454;2022-11-15T11:50:46;13.10;70.10
41939;DHT22;23057;48.554;14.454;2022-11-15T11:53:39;12.70;99.90
41939;DHT22;23057;48.554;14.454;2022-11-15T11:56:35;12.40;99.90
41939;DHT22;23057;48.554;14.454;2022-11-15T12:02:38;12.60;99.90
41939;DHT22;23057;48.554;14.454;2022-11-15T12:05:28;12.30;99.90
41939;DHT22;23057;48.554;14.454;2022-11-15T12:08:36;12.50;99.90
41939;DHT22;23057;48.554;14.454;2022-11-15T12:11:59;12.40;99.90
41939;DHT22;23057;48.554;14.454;2022-11-15T12:17:25;11.70;99.90
41939;DHT22;23057;48.554;14.454;2022-11-15T12:20:06;11.90;99.90
41939;DHT22;23057;48.554;14.454;2022-11-15T12:26:06;11.60;99.90
41939;DHT22;23057;48.554;14.454;2022-11-15T12:36:51;12.10;99.90
41939;DHT22;23057;48.554;14.454;2022-11-15T12:46:22;12.00;99.90
41939;DHT22;23057;48.554;14.454;2022-11-15T12:49:11;12.20;99.90
41939;DHT22;23057;48.554;14.454;2022-11-15T12:57:34;12.20;99.90
41939;DHT22;23057;48.554;14.454;2022-11-15T13:02:45;11.90;99.90
41939;DHT22;23057;48.554;14.454;2022-11-15T13:12:53;11.80;99.90
41939;DHT22;23057;48.554;14.454;2022-11-15T13:18:38;11.60;99.90
41939;DHT22;23057;48.554;14.454;2022-11-15T13:21:22;11.50;99.90
41939;DHT22;23057;48.554;14.454;2022-11-15T13:24:16;11.50;99.90
41939;DHT22;23057;48.554;14.454;2022-11-15T13:26:47;11.50;99.90
41939;DHT22;23057;48.554;14.454;2022-11-15T13:29:19;11.40;99.90
41939;DHT22;23057;48.554;14.454;2022-11-15T13:31:51;11.10;1.00
41939;DHT22;23057;48.554;14.454;2022-11-15T13:34:30;10.90;1.00
41939;DHT22;23057;48.554;14.454;2022-11-15T13:39:52;10.70;1.00
41939;DHT22;23057;48.554;14.454;2022-11-15T13:42:28;10.60;7.10
41939;DHT22;23057;48.554;14.454;2022-11-15T13:45:02;10.60;48.70
41939;DHT22;23057;48.554;14.454;2022-11-15T13:47:35;10.50;99.90
41939;DHT22;23057;48.554;14.454;2022-11-15T13:50:10;10.40;99.90
41939;DHT22;23057;48.554;14.454;2022-11-15T13:52:44;10.30;93.50
41939;DHT22;23057;48.554;14.454;2022-11-15T13:55:21;10.10;99.90
41939;DHT22;23057;48.554;14.454;2022-11-15T13:57:57;10.00;99.90
41939;DHT22;23057;48.554;14.454;2022-11-15T14:00:43;10.00;99.90
41939;DHT22;23057;48.554;14.454;2022-11-15T14:03:24;10.00;99.90
41939;DHT22;23057;48.554;14.454;2022-11-15T14:06:16;9.80;99.90
41939;DHT22;23057;48.554;14.454;2022-11-15T14:12:31;9.40;99.90
41939;DHT22;23057;48.554;14.454;2022-11-15T14:15:31;9.50;99.90
41939;DHT22;23057;48.554;14.454;2022-11-15T14:18:05;9.50;1.00
41939;DHT22;23057;48.554;14.454;2022-11-15T14:20:39;9.40;99.90
41939;DHT22;23057;48.554;14.454;2022-11-15T14:23:28;9.10;99.90
41939;DHT22;23057;48.554;14.454;2022-11-15T14:25:59;8.70;1.00
41939;DHT22;23057;48.554;14.454;2022-11-15T14:28:32;8.50;99.90
41939;DHT22;23057;48.554;14.454;2022-11-15T14:31:11;8.50;99.90
41939;DHT22;23057;48.554;14.454;2022-11-15T14:33:45;8.60;99.90
41939;DHT22;23057;48.554;14.454;2022-11-15T14:36:20;8.70;20.70
41939;DHT22;23057;48.554;14.454;2022-11-15T14:38:52;8.50;1.00
41939;DHT22;23057;48.554;14.454;2022-11-15T14:41:25;8.20;1.00
41939;DHT22;23057;48.554;14.454;2022-11-15T14:44:03;8.00;45.40
41939;DHT22;23057;48.554;14.454;2022-11-15T14:46:35;7.80;99.90
41939;DHT22;23057;48.554;14.454;2022-11-15T14:49:06;7.70;99.90
41939;DHT22;23057;48.554;14.454;2022-11-15T14:51:37;7.60;99.90
41939;DHT22;23057;48.554;14.454;2022-11-15T14:54:10;7.30;99.90
41939;DHT22;23057;48.554;14.454;2022-11-15T14:56:41;7.10;99.90
41939;DHT22;23057;48.554;14.454;2022-11-15T14:59:13;6.90;99.90
41939;DHT22;23057;48.554;14.454;2022-11-15T15:01:43;6.60;99.90
41939;DHT22;23057;48.554;14.454;2022-11-15T15:04:14;6.20;99.90
41939;DHT22;23057;48.554;14.454;2022-11-15T15:06:45;6.00;99.90
41939;DHT22;23057;48.554;14.454;2022-11-15T15:09:16;5.80;99.90
41939;DHT22;23057;48.554;14.454;2022-11-15T15:11:47;5.70;99.90
41939;DHT22;23057;48.554;14.454;2022-11-15T15:14:17;5.50;99.90
41939;DHT22;23057;48.554;14.454;2022-11-15T15:16:48;5.30;99.90
41939;DHT22;23057;48.554;14.454;2022-11-15T15:19:19;5.10;99.90
41939;DHT22;23057;48.554;14.454;2022-11-15T15:21:50;5.00;99.90
41939;DHT22;23057;48.554;14.454;2022-11-15T15:24:21;4.80;99.90
41939;DHT22;23057;48.554;14.454;2022-11-15T15:26:51;4.80;99.90
41939;DHT22;23057;48.554;14.454;2022-11-15T15:29:22;4.80;99.90
41939;DHT22;23057;48.554;14.454;2022-11-15T15:31:53;5.00;99.90
41939;DHT22;23057;48.554;14.454;2022-11-15T15:34:24;4.90;99.90
41939;DHT22;23057;48.554;14.454;2022-11-15T15:37:19;4.50;99.90
41939;DHT22;23057;48.554;14.454;2022-11-15T15:39:56;4.30;99.90
41939;DHT22;23057;48.554;14.454;2022-11-15T15:42:27;4.10;99.90
41939;DHT22;23057;48.554;14.454;2022-11-15T15:44:58;4.10;99.90
41939;DHT22;23057;48.554;14.454;2022-11-15T15:47:29;4.10;99.90
41939;DHT22;23057;48.554;14.454;2022-11-15T15:50:00;4.00;99.90
41939;DHT22;23057;48.554;14.454;2022-11-15T15:52:31;4.00;99.90
41939;DHT22;23057;48.554;14.454;2022-11-15T15:55:01;3.90;99.90
41939;DHT22;23057;48.554;14.454;2022-11-15T15:57:32;3.90;99.90
41939;DHT22;23057;48.554;14.454;2022-11-15T16:00:04;3.90;99.90
41939;DHT22;23057;48.554;14.454;2022-11-15T16:02:36;3.90;99.90
41939;DHT22;23057;48.554;14.454;2022-11-15T16:05:08;3.90;99.90
41939;DHT22;23057;48.554;14.454;2022-11-15T16:07:40;3.90;99.90
41939;DHT22;23057;48.554;14.454;2022-11-15T16:10:17;3.90;99.90
41939;DHT22;23057;48.554;14.454;2022-11-15T16:12:50;3.90;99.90
41939;DHT22;23057;48.554;14.454;2022-11-15T16:15:24;3.80;99.90
41939;DHT22;23057;48.554;14.454;2022-11-15T16:17:59;3.90;99.90
41939;DHT22;23057;48.554;14.454;2022-11-15T16:23:17;3.80;99.90
41939;DHT22;23057;48.554;14.454;2022-11-15T16:25:50;3.90;99.90
41939;DHT22;23057;48.554;14.454;2022-11-15T16:28:31;4.00;99.90
41939;DHT22;23057;48.554;14.454;2022-11-15T16:31:09;4.00;99.90
41939;DHT22;23057;48.554;14.454;2022-11-15T16:33:42;4.10;99.90
41939;DHT22;23057;48.554;14.454;2022-11-15T16:36:20;4.00;99.90
41939;DHT22;23057;48.554;14.454;2022-11-15T16:38:56;4.00;99.90
41939;DHT22;23057;48.554;14.454;2022-11-15T16:41:29;4.10;99.90
41939;DHT22;23057;48.554;14.454;2022-11-15T16:44:00;4.10;99.90
41939;DHT22;23057;48.554;14.454;2022-11-15T16:46:31;4.10;99.90
41939;DHT22;23057;48.554;14.454;2022-11-15T16:49:02;4.10;99.90
41939;DHT22;23057;48.554;14.454;2022-11-15T16:51:33;4.00;99.90
41939;DHT22;23057;48.554;14.454;2022-11-15T16:54:04;4.00;99.90
41939;DHT22;23057;48.554;14.454;2022-11-15T16:56:35;4.10;99.90
41939;DHT22;23057;48.554;14.454;2022-11-15T16:59:08;4.00;99.90
41939;DHT22;23057;48.554;14.454;2022-11-15T17:01:46;3.90;99.90
41939;DHT22;23057;48.554;14.454;2022-11-15T17:04:22;3.90;99.90
41939;DHT22;23057;48.554;14.454;2022-11-15T17:06:52;3.90;99.90
41939;DHT22;23057;48.554;14.454;2022-11-15T17:09:23;3.90;99.90
41939;DHT22;23057;48.554;14.454;2022-11-15T17:11:54;3.80;99.90
41939;DHT22;23057;48.554;14.454;2022-11-15T17:14:25;3.80;99.90
41939;DHT22;23057;48.554;14.454;2022-11-15T17:16:56;3.70;99.90
41939;DHT22;23057;48.554;14.454;2022-11-15T17:19:27;3.70;99.90
41939;DHT22;23057;48.554;14.454;2022-11-15T17:21:59;3.70;99.90
41939;DHT22;23057;48.554;14.454;2022-11-15T17:24:30;3.80;99.90
41939;DHT22;23057;48.554;14.454;2022-11-15T17:27:01;3.70;99.90
41939;DHT22;23057;48.554;14.454;2022-11-15T17:29:31;3.80;99.90
41939;DHT22;23057;48.554;14.454;2022-11-15T17:32:02;3.70;99.90
41939;DHT22;23057;48.554;14.454;2022-11-15T17:34:33;3.70;99.90
41939;DHT22;23057;48.554;14.454;2022-11-15T17:37:04;3.70;99.90
41939;DHT22;23057;48.554;14.454;2022-11-15T17:39:35;3.70;99.90
41939;DHT22;23057;48.554;14.454;2022-11-15T17:42:06;3.70;99.90
41939;DHT22;23057;48.554;14.454;2022-11-15T17:44:37;3.70;99.90
41939;DHT22;23057;48.554;14.454;2022-11-15T17:47:08;3.70;99.90
41939;DHT22;23057;48.554;14.454;2022-11-15T17:49:39;3.80;99.90
41939;DHT22;23057;48.554;14.454;2022-11-15T17:52:10;3.60;99.90
41939;DHT22;23057;48.554;14.454;2022-11-15T17:54:41;3.60;99.90
41939;DHT22;23057;48.554;14.454;2022-11-15T17:57:12;3.60;99.90
41939;DHT22;23057;48.554;14.454;2022-11-15T17:59:42;3.60;99.90
41939;DHT22;23057;48.554;14.454;2022-11-15T18:02:13;3.70;99.90
41939;DHT22;23057;48.554;14.454;2022-11-15T18:04:44;3.70;99.90
41939;DHT22;23057;48.554;14.454;2022-11-15T18:07:15;3.60;99.90
41939;DHT22;23057;48.554;14.454;2022-11-15T18:09:46;3.50;99.90
41939;DHT22;23057;48.554;14.454;2022-11-15T18:12:16;3.60;99.90
41939;DHT22;23057;48.554;14.454;2022-11-15T18:14:49;3.60;99.90
41939;DHT22;23057;48.554;14.454;2022-11-15T18:17:19;3.60;99.90
41939;DHT22;23057;48.554;14.454;2022-11-15T18:19:50;3.60;99.90
41939;DHT22;23057;48.554;14.454;2022-11-15T18:22:21;3.60;99.90
41939;DHT22;23057;48.554;14.454;2022-11-15T18:24:52;3.60;99.90
41939;DHT22;23057;48.554;14.454;2022-11-15T18:27:23;3.60;99.90
41939;DHT22;23057;48.554;14.454;2022-11-15T18:29:54;3.60;99.90